sensor_id;sensor_type;location;lat;lon;timestamp;temperature;humidity
65824;SHT31;52585;47.566;19.056;2023-03-14T00:00:14;8.78;54.96
65824;SHT31;52585;47.566;19.056;2023-03-14T00:02:41;8.70;54.90
65824;SHT31;52585;47.566;19.056;2023-03-14T00:05:07;8.66;55.29
65824;SHT31;52585;47.566;19.056;2023-03-14T00:07:38;8.62;55.42
65824;SHT31;52585;47.566;19.056;2023-03-14T00:10:06;8.56;55.69
65824;SHT31;52585;47.566;19.056;2023-03-14T00:12:36;8.51;56.57
65824;SHT31;52585;47.566;19.056;2023-03-14T00:15:02;8.44;56.01
65824;SHT31;52585;47.566;19.056;2023-03-14T00:17:30;8.41;56.49
65824;SHT31;52585;47.566;19.056;2023-03-14T00:19:56;8.39;56.77
65824;SHT31;52585;47.566;19.056;2023-03-14T00:22:21;8.30;57.15
65824;SHT31;52585;47.566;19.056;2023-03-14T00:24:47;8.28;56.73
65824;SHT31;52585;47.566;19.056;2023-03-14T00:27:13;8.26;57.61
65824;SHT31;52585;47.566;19.056;2023-03-14T00:29:39;8.23;57.26
65824;SHT31;52585;47.566;19.056;2023-03-14T00:32:04;8.23;57.12
65824;SHT31;52585;47.566;19.056;2023-03-14T00:34:31;8.25;56.97
65824;SHT31;52585;47.566;19.056;2023-03-14T00:36:57;8.26;56.85
65824;SHT31;52585;47.566;19.056;2023-03-14T00:39:23;8.30;56.31
65824;SHT31;52585;47.566;19.056;2023-03-14T00:41:48;8.32;56.23
65824;SHT31;52585;47.566;19.056;2023-03-14T00:44:14;8.33;56.01
65824;SHT31;52585;47.566;19.056;2023-03-14T00:46:39;8.35;55.56
65824;SHT31;52585;47.566;19.056;2023-03-14T00:49:05;8.34;55.80
65824;SHT31;52585;47.566;19.056;2023-03-14T00:51:31;8.37;55.83
65824;SHT31;52585;47.566;19.056;2023-03-14T00:53:56;8.40;55.89
65824;SHT31;52585;47.566;19.056;2023-03-14T00:56:22;8.42;56.26
65824;SHT31;52585;47.566;19.056;2023-03-14T00:58:47;8.41;56.08
65824;SHT31;52585;47.566;19.056;2023-03-14T01:01:14;8.38;56.47
65824;SHT31;52585;47.566;19.056;2023-03-14T01:03:43;8.35;55.89
65824;SHT31;52585;47.566;19.056;2023-03-14T01:06:11;8.33;55.76
65824;SHT31;52585;47.566;19.056;2023-03-14T01:08:40;8.28;55.57
65824;SHT31;52585;47.566;19.056;2023-03-14T01:11:07;8.31;55.22
65824;SHT31;52585;47.566;19.056;2023-03-14T01:13:39;8.28;54.99
65824;SHT31;52585;47.566;19.056;2023-03-14T01:16:06;8.29;55.28
65824;SHT31;52585;47.566;19.056;2023-03-14T01:18:35;8.31;55.34
65824;SHT31;52585;47.566;19.056;2023-03-14T01:21:12;8.28;55.04
65824;SHT31;52585;47.566;19.056;2023-03-14T01:23:42;8.22;55.19
65824;SHT31;52585;47.566;19.056;2023-03-14T01:26:09;8.14;55.24
65824;SHT31;52585;47.566;19.056;2023-03-14T01:28:40;8.14;55.24
65824;SHT31;52585;47.566;19.056;2023-03-14T01:31:07;8.08;55.36
65824;SHT31;52585;47.566;19.056;2023-03-14T01:33:35;8.01;55.26
65824;SHT31;52585;47.566;19.056;2023-03-14T01:36:02;7.92;55.33
65824;SHT31;52585;47.566;19.056;2023-03-14T01:38:32;7.88;55.54
65824;SHT31;52585;47.566;19.056;2023-03-14T01:41:00;7.82;56.02
65824;SHT31;52585;47.566;19.056;2023-03-14T01:43:27;7.78;56.41
65824;SHT31;52585;47.566;19.056;2023-03-14T01:48:34;7.74;56.47
65824;SHT31;52585;47.566;19.056;2023-03-14T01:51:06;7.72;56.50
65824;SHT31;52585;47.566;19.056;2023-03-14T01:53:40;7.72;57.25
65824;SHT31;52585;47.566;19.056;2023-03-14T01:56:09;7.72;57.45
65824;SHT31;52585;47.566;19.056;2023-03-14T01:58:39;7.64;57.22
65824;SHT31;52585;47.566;19.056;2023-03-14T02:01:11;7.68;57.13
65824;SHT31;52585;47.566;19.056;2023-03-14T02:03:44;7.66;56.97
65824;SHT31;52585;47.566;19.056;2023-03-14T02:06:17;7.59;57.40
65824;SHT31;52585;47.566;19.056;2023-03-14T02:08:48;7.53;57.46
65824;SHT31;52585;47.566;19.056;2023-03-14T02:11:15;7.49;57.56
65824;SHT31;52585;47.566;19.056;2023-03-14T02:13:42;7.45;57.90
65824;SHT31;52585;47.566;19.056;2023-03-14T02:16:09;7.47;57.74
65824;SHT31;52585;47.566;19.056;2023-03-14T02:18:35;7.47;58.76
65824;SHT31;52585;47.566;19.056;2023-03-14T02:29:06;7.29;59.21
65824;SHT31;52585;47.566;19.056;2023-03-14T02:31:32;7.33;58.47
65824;SHT31;52585;47.566;19.056;2023-03-14T02:33:59;7.43;58.07
65824;SHT31;52585;47.566;19.056;2023-03-14T02:36:26;7.45;58.03
65824;SHT31;52585;47.566;19.056;2023-03-14T02:38:55;7.48;57.89
65824;SHT31;52585;47.566;19.056;2023-03-14T02:41:36;7.44;58.10
65824;SHT31;52585;47.566;19.056;2023-03-14T02:44:01;7.43;58.04
65824;SHT31;52585;47.566;19.056;2023-03-14T02:46:27;7.42;57.89
65824;SHT31;52585;47.566;19.056;2023-03-14T02:48:54;7.34;58.49
65824;SHT31;52585;47.566;19.056;2023-03-14T02:51:28;7.29;58.84
65824;SHT31;52585;47.566;19.056;2023-03-14T02:53:55;7.28;59.26
65824;SHT31;52585;47.566;19.056;2023-03-14T02:56:21;7.24;59.69
65824;SHT31;52585;47.566;19.056;2023-03-14T02:58:47;7.19;59.40
65824;SHT31;52585;47.566;19.056;2023-03-14T03:01:12;7.12;59.25
65824;SHT31;52585;47.566;19.056;2023-03-14T03:03:38;7.11;59.33
65824;SHT31;52585;47.566;19.056;2023-03-14T03:06:03;7.09;59.05
65824;SHT31;52585;47.566;19.056;2023-03-14T03:08:29;7.08;59.33
65824;SHT31;52585;47.566;19.056;2023-03-14T03:10:57;7.08;59.16
65824;SHT31;52585;47.566;19.056;2023-03-14T03:13:23;7.10;59.26
65824;SHT31;52585;47.566;19.056;2023-03-14T03:15:49;7.10;59.50
65824;SHT31;52585;47.566;19.056;2023-03-14T03:18:15;7.15;59.27
65824;SHT31;52585;47.566;19.056;2023-03-14T03:20:41;7.21;59.25
65824;SHT31;52585;47.566;19.056;2023-03-14T03:23:06;7.24;59.34
65824;SHT31;52585;47.566;19.056;2023-03-14T03:25:32;7.21;59.42
65824;SHT31;52585;47.566;19.056;2023-03-14T03:27:58;7.19;59.10
65824;SHT31;52585;47.566;19.056;2023-03-14T03:30:24;7.17;59.74
65824;SHT31;52585;47.566;19.056;2023-03-14T03:32:49;7.13;59.87
65824;SHT31;52585;47.566;19.056;2023-03-14T03:35:15;7.05;60.24
65824;SHT31;52585;47.566;19.056;2023-03-14T03:37:41;6.96;60.26
65824;SHT31;52585;47.566;19.056;2023-03-14T03:40:07;7.03;59.60
65824;SHT31;52585;47.566;19.056;2023-03-14T03:42:34;7.03;59.49
65824;SHT31;52585;47.566;19.056;2023-03-14T03:45:01;6.96;59.46
65824;SHT31;52585;47.566;19.056;2023-03-14T03:47:29;6.89;59.14
65824;SHT31;52585;47.566;19.056;2023-03-14T03:49:56;6.85;59.30
65824;SHT31;52585;47.566;19.056;2023-03-14T03:52:22;6.89;59.36
65824;SHT31;52585;47.566;19.056;2023-03-14T03:54:47;6.93;59.02
65824;SHT31;52585;47.566;19.056;2023-03-14T03:57:13;6.87;59.41
65824;SHT31;52585;47.566;19.056;2023-03-14T03:59:39;6.87;59.27
65824;SHT31;52585;47.566;19.056;2023-03-14T04:02:06;6.93;59.02
65824;SHT31;52585;47.566;19.056;2023-03-14T04:04:32;6.92;58.92
65824;SHT31;52585;47.566;19.056;2023-03-14T04:06:58;6.82;59.21
65824;SHT31;52585;47.566;19.056;2023-03-14T04:09:24;6.74;59.59
65824;SHT31;52585;47.566;19.056;2023-03-14T04:11:49;6.67;59.91
65824;SHT31;52585;47.566;19.056;2023-03-14T04:14:15;6.63;60.22
65824;SHT31;52585;47.566;19.056;2023-03-14T04:16:41;6.63;59.99
65824;SHT31;52585;47.566;19.056;2023-03-14T04:19:06;6.72;59.64
65824;SHT31;52585;47.566;19.056;2023-03-14T04:21:32;6.78;59.70
65824;SHT31;52585;47.566;19.056;2023-03-14T04:23:58;6.72;59.91
65824;SHT31;52585;47.566;19.056;2023-03-14T04:26:23;6.68;59.95
65824;SHT31;52585;47.566;19.056;2023-03-14T04:28:49;6.62;60.05
65824;SHT31;52585;47.566;19.056;2023-03-14T04:31:16;6.55;60.07
65824;SHT31;52585;47.566;19.056;2023-03-14T04:33:45;6.53;60.33
65824;SHT31;52585;47.566;19.056;2023-03-14T04:36:12;6.51;59.86
65824;SHT31;52585;47.566;19.056;2023-03-14T04:38:38;6.46;59.95
65824;SHT31;52585;47.566;19.056;2023-03-14T04:41:04;6.42;59.98
65824;SHT31;52585;47.566;19.056;2023-03-14T04:43:31;6.44;59.74
65824;SHT31;52585;47.566;19.056;2023-03-14T04:45:57;6.48;59.74
65824;SHT31;52585;47.566;19.056;2023-03-14T04:48:24;6.47;59.91
65824;SHT31;52585;47.566;19.056;2023-03-14T04:50:51;6.47;59.99
65824;SHT31;52585;47.566;19.056;2023-03-14T04:53:17;6.45;60.32
65824;SHT31;52585;47.566;19.056;2023-03-14T04:55:53;6.43;60.43
65824;SHT31;52585;47.566;19.056;2023-03-14T04:58:21;6.43;60.32
65824;SHT31;52585;47.566;19.056;2023-03-14T05:00:48;6.38;60.82
65824;SHT31;52585;47.566;19.056;2023-03-14T05:03:15;6.36;61.11
65824;SHT31;52585;47.566;19.056;2023-03-14T05:05:43;6.32;61.27
65824;SHT31;52585;47.566;19.056;2023-03-14T05:08:09;6.31;61.47
65824;SHT31;52585;47.566;19.056;2023-03-14T05:10:35;6.35;61.64
65824;SHT31;52585;47.566;19.056;2023-03-14T05:13:02;6.36;61.99
65824;SHT31;52585;47.566;19.056;2023-03-14T05:15:28;6.40;62.22
65824;SHT31;52585;47.566;19.056;2023-03-14T05:17:53;6.45;62.49
65824;SHT31;52585;47.566;19.056;2023-03-14T05:20:19;6.48;62.90
65824;SHT31;52585;47.566;19.056;2023-03-14T05:22:46;6.51;62.79
65824;SHT31;52585;47.566;19.056;2023-03-14T05:25:12;6.64;62.37
65824;SHT31;52585;47.566;19.056;2023-03-14T05:27:37;6.76;63.37
65824;SHT31;52585;47.566;19.056;2023-03-14T05:30:03;6.80;62.74
65824;SHT31;52585;47.566;19.056;2023-03-14T05:32:31;6.82;62.91
65824;SHT31;52585;47.566;19.056;2023-03-14T05:34:57;6.89;62.61
65824;SHT31;52585;47.566;19.056;2023-03-14T05:37:26;6.99;62.81
65824;SHT31;52585;47.566;19.056;2023-03-14T05:39:52;7.07;62.97
65824;SHT31;52585;47.566;19.056;2023-03-14T05:42:18;7.15;62.63
65824;SHT31;52585;47.566;19.056;2023-03-14T05:44:43;7.26;62.97
65824;SHT31;52585;47.566;19.056;2023-03-14T05:47:09;7.36;63.23
65824;SHT31;52585;47.566;19.056;2023-03-14T05:49:35;7.47;62.78
65824;SHT31;52585;47.566;19.056;2023-03-14T05:52:00;7.60;62.72
65824;SHT31;52585;47.566;19.056;2023-03-14T05:54:26;7.73;62.72
65824;SHT31;52585;47.566;19.056;2023-03-14T05:56:52;7.85;62.06
65824;SHT31;52585;47.566;19.056;2023-03-14T05:59:17;7.98;62.19
65824;SHT31;52585;47.566;19.056;2023-03-14T06:01:43;8.10;62.02
65824;SHT31;52585;47.566;19.056;2023-03-14T06:04:09;8.21;61.90
65824;SHT31;52585;47.566;19.056;2023-03-14T06:06:34;8.34;61.80
65824;SHT31;52585;47.566;19.056;2023-03-14T06:09:00;8.45;61.67
65824;SHT31;52585;47.566;19.056;2023-03-14T06:11:26;8.54;61.53
65824;SHT31;52585;47.566;19.056;2023-03-14T06:13:52;8.65;61.24
65824;SHT31;52585;47.566;19.056;2023-03-14T06:16:17;8.76;60.87
65824;SHT31;52585;47.566;19.056;2023-03-14T06:18:43;8.90;60.63
65824;SHT31;52585;47.566;19.056;2023-03-14T06:21:12;9.00;60.38
65824;SHT31;52585;47.566;19.056;2023-03-14T06:23:37;9.08;60.21
65824;SHT31;52585;47.566;19.056;2023-03-14T06:26:04;9.18;59.43
65824;SHT31;52585;47.566;19.056;2023-03-14T06:28:30;9.28;59.15
65824;SHT31;52585;47.566;19.056;2023-03-14T06:30:56;9.36;58.82
65824;SHT31;52585;47.566;19.056;2023-03-14T06:33:23;9.42;58.57
65824;SHT31;52585;47.566;19.056;2023-03-14T06:35:48;9.49;58.02
65824;SHT31;52585;47.566;19.056;2023-03-14T06:38:14;9.55;58.07
65824;SHT31;52585;47.566;19.056;2023-03-14T06:40:39;9.60;57.99
65824;SHT31;52585;47.566;19.056;2023-03-14T06:43:05;9.65;57.79
65824;SHT31;52585;47.566;19.056;2023-03-14T06:45:31;9.72;57.57
65824;SHT31;52585;47.566;19.056;2023-03-14T06:47:57;9.77;57.62
65824;SHT31;52585;47.566;19.056;2023-03-14T06:50:22;9.81;57.25
65824;SHT31;52585;47.566;19.056;2023-03-14T06:52:48;9.86;56.92
65824;SHT31;52585;47.566;19.056;2023-03-14T06:55:14;9.92;56.71
65824;SHT31;52585;47.566;19.056;2023-03-14T06:57:40;9.96;56.70
65824;SHT31;52585;47.566;19.056;2023-03-14T07:00:07;9.99;57.03
65824;SHT31;52585;47.566;19.056;2023-03-14T07:02:33;10.03;56.83
65824;SHT31;52585;47.566;19.056;2023-03-14T07:04:59;10.06;56.46
65824;SHT31;52585;47.566;19.056;2023-03-14T07:07:26;10.11;56.62
65824;SHT31;52585;47.566;19.056;2023-03-14T07:09:52;10.14;56.58
65824;SHT31;52585;47.566;19.056;2023-03-14T07:12:18;10.18;56.23
65824;SHT31;52585;47.566;19.056;2023-03-14T07:14:44;10.22;56.06
65824;SHT31;52585;47.566;19.056;2023-03-14T07:17:10;10.26;56.17
65824;SHT31;52585;47.566;19.056;2023-03-14T07:19:35;10.31;56.06
65824;SHT31;52585;47.566;19.056;2023-03-14T07:22:03;10.35;55.89
65824;SHT31;52585;47.566;19.056;2023-03-14T07:24:29;10.40;55.49
65824;SHT31;52585;47.566;19.056;2023-03-14T07:26:55;10.44;55.69
65824;SHT31;52585;47.566;19.056;2023-03-14T07:29:20;10.48;55.62
65824;SHT31;52585;47.566;19.056;2023-03-14T07:31:46;10.51;55.66
65824;SHT31;52585;47.566;19.056;2023-03-14T07:34:12;10.55;55.94
65824;SHT31;52585;47.566;19.056;2023-03-14T07:36:37;10.60;55.83
65824;SHT31;52585;47.566;19.056;2023-03-14T07:39:03;10.66;55.76
65824;SHT31;52585;47.566;19.056;2023-03-14T07:41:29;10.72;55.81
65824;SHT31;52585;47.566;19.056;2023-03-14T07:43:56;10.77;55.77
65824;SHT31;52585;47.566;19.056;2023-03-14T07:46:21;10.84;55.72
65824;SHT31;52585;47.566;19.056;2023-03-14T07:48:47;10.90;55.71
65824;SHT31;52585;47.566;19.056;2023-03-14T07:51:12;10.95;55.76
65824;SHT31;52585;47.566;19.056;2023-03-14T07:53:38;11.02;55.73
65824;SHT31;52585;47.566;19.056;2023-03-14T07:56:04;11.10;55.44
65824;SHT31;52585;47.566;19.056;2023-03-14T07:58:31;11.17;55.62
65824;SHT31;52585;47.566;19.056;2023-03-14T08:00:58;11.25;55.63
65824;SHT31;52585;47.566;19.056;2023-03-14T08:03:24;11.33;55.29
65824;SHT31;52585;47.566;19.056;2023-03-14T08:05:50;11.40;55.46
65824;SHT31;52585;47.566;19.056;2023-03-14T08:08:16;11.49;55.44
65824;SHT31;52585;47.566;19.056;2023-03-14T08:10:43;11.57;55.39
65824;SHT31;52585;47.566;19.056;2023-03-14T08:13:09;11.65;55.28
65824;SHT31;52585;47.566;19.056;2023-03-14T08:15:35;11.72;55.05
65824;SHT31;52585;47.566;19.056;2023-03-14T08:18:02;11.81;54.59
65824;SHT31;52585;47.566;19.056;2023-03-14T08:20:30;11.89;54.31
65824;SHT31;52585;47.566;19.056;2023-03-14T08:22:59;11.96;54.86
65824;SHT31;52585;47.566;19.056;2023-03-14T08:25:27;12.02;54.91
65824;SHT31;52585;47.566;19.056;2023-03-14T08:27:53;12.06;54.86
65824;SHT31;52585;47.566;19.056;2023-03-14T08:30:20;12.11;54.87
65824;SHT31;52585;47.566;19.056;2023-03-14T08:32:47;12.17;54.90
65824;SHT31;52585;47.566;19.056;2023-03-14T08:35:14;12.25;54.74
65824;SHT31;52585;47.566;19.056;2023-03-14T08:37:40;12.33;54.70
65824;SHT31;52585;47.566;19.056;2023-03-14T08:40:06;12.40;54.63
65824;SHT31;52585;47.566;19.056;2023-03-14T08:42:37;12.48;54.60
65824;SHT31;52585;47.566;19.056;2023-03-14T08:45:07;12.54;54.43
65824;SHT31;52585;47.566;19.056;2023-03-14T08:47:36;12.64;54.28
65824;SHT31;52585;47.566;19.056;2023-03-14T08:50:02;12.74;54.21
65824;SHT31;52585;47.566;19.056;2023-03-14T08:52:31;12.83;54.05
65824;SHT31;52585;47.566;19.056;2023-03-14T08:54:57;12.94;53.73
65824;SHT31;52585;47.566;19.056;2023-03-14T08:57:24;13.04;53.66
65824;SHT31;52585;47.566;19.056;2023-03-14T08:59:55;13.17;53.30
65824;SHT31;52585;47.566;19.056;2023-03-14T09:02:22;13.29;53.03
65824;SHT31;52585;47.566;19.056;2023-03-14T09:04:51;13.41;52.89
65824;SHT31;52585;47.566;19.056;2023-03-14T09:07:17;13.52;52.59
65824;SHT31;52585;47.566;19.056;2023-03-14T09:09:44;13.64;52.44
65824;SHT31;52585;47.566;19.056;2023-03-14T09:12:10;13.77;52.22
65824;SHT31;52585;47.566;19.056;2023-03-14T09:14:36;13.88;51.88
65824;SHT31;52585;47.566;19.056;2023-03-14T09:17:02;13.99;51.62
65824;SHT31;52585;47.566;19.056;2023-03-14T09:19:28;14.08;51.51
65824;SHT31;52585;47.566;19.056;2023-03-14T09:21:54;14.18;51.34
65824;SHT31;52585;47.566;19.056;2023-03-14T09:24:20;14.30;50.87
65824;SHT31;52585;47.566;19.056;2023-03-14T09:26:46;14.43;50.10
65824;SHT31;52585;47.566;19.056;2023-03-14T09:29:12;14.51;50.76
65824;SHT31;52585;47.566;19.056;2023-03-14T09:31:38;14.56;50.27
65824;SHT31;52585;47.566;19.056;2023-03-14T09:34:03;14.68;49.84
65824;SHT31;52585;47.566;19.056;2023-03-14T09:36:29;14.76;49.73
65824;SHT31;52585;47.566;19.056;2023-03-14T09:38:55;14.84;49.72
65824;SHT31;52585;47.566;19.056;2023-03-14T09:46:47;15.05;49.92
65824;SHT31;52585;47.566;19.056;2023-03-14T09:49:28;15.09;49.52
65824;SHT31;52585;47.566;19.056;2023-03-14T09:57:37;15.20;49.03
65824;SHT31;52585;47.566;19.056;2023-03-14T10:00:16;15.22;49.22
65824;SHT31;52585;47.566;19.056;2023-03-14T10:02:53;15.24;49.07
65824;SHT31;52585;47.566;19.056;2023-03-14T10:05:25;15.28;49.10
65824;SHT31;52585;47.566;19.056;2023-03-14T10:07:54;15.32;49.05
65824;SHT31;52585;47.566;19.056;2023-03-14T10:10:21;15.42;48.81
65824;SHT31;52585;47.566;19.056;2023-03-14T10:12:56;15.50;48.67
65824;SHT31;52585;47.566;19.056;2023-03-14T10:15:33;15.52;48.99
65824;SHT31;52585;47.566;19.056;2023-03-14T10:18:00;15.57;49.02
65824;SHT31;52585;47.566;19.056;2023-03-14T10:23:05;15.76;48.66
65824;SHT31;52585;47.566;19.056;2023-03-14T10:25:39;15.87;48.74
65824;SHT31;52585;47.566;19.056;2023-03-14T10:28:33;15.95;48.64
65824;SHT31;52585;47.566;19.056;2023-03-14T10:31:03;16.03;48.48
65824;SHT31;52585;47.566;19.056;2023-03-14T10:33:31;16.09;48.46
65824;SHT31;52585;47.566;19.056;2023-03-14T10:38:51;16.27;48.57
65824;SHT31;52585;47.566;19.056;2023-03-14T10:41:50;16.36;48.10
65824;SHT31;52585;47.566;19.056;2023-03-14T10:44:27;16.41;48.01
65824;SHT31;52585;47.566;19.056;2023-03-14T10:46:56;16.44;47.92
65824;SHT31;52585;47.566;19.056;2023-03-14T10:49:28;16.48;47.81
65824;SHT31;52585;47.566;19.056;2023-03-14T10:52:01;16.50;48.03
65824;SHT31;52585;47.566;19.056;2023-03-14T10:54:48;16.58;47.33
65824;SHT31;52585;47.566;19.056;2023-03-14T10:57:22;16.72;47.41
65824;SHT31;52585;47.566;19.056;2023-03-14T10:59:47;16.79;47.36
65824;SHT31;52585;47.566;19.056;2023-03-14T11:02:20;16.86;47.24
65824;SHT31;52585;47.566;19.056;2023-03-14T11:16:30;17.33;46.30
65824;SHT31;52585;47.566;19.056;2023-03-14T11:24:49;17.34;46.28
65824;SHT31;52585;47.566;19.056;2023-03-14T11:27:30;17.35;46.23
65824;SHT31;52585;47.566;19.056;2023-03-14T11:35:32;17.54;45.88
65824;SHT31;52585;47.566;19.056;2023-03-14T11:38:10;17.56;45.92
65824;SHT31;52585;47.566;19.056;2023-03-14T11:41:02;17.60;45.64
65824;SHT31;52585;47.566;19.056;2023-03-14T11:43:35;17.61;45.90
65824;SHT31;52585;47.566;19.056;2023-03-14T11:46:11;17.62;45.72
65824;SHT31;52585;47.566;19.056;2023-03-14T11:51:47;17.53;45.49
65824;SHT31;52585;47.566;19.056;2023-03-14T11:54:34;17.50;45.55
65824;SHT31;52585;47.566;19.056;2023-03-14T11:57:19;17.50;45.35
65824;SHT31;52585;47.566;19.056;2023-03-14T12:10:45;17.57;44.89
65824;SHT31;52585;47.566;19.056;2023-03-14T12:13:16;17.55;44.98
65824;SHT31;52585;47.566;19.056;2023-03-14T12:15:47;17.54;44.86
65824;SHT31;52585;47.566;19.056;2023-03-14T12:18:39;17.52;44.88
65824;SHT31;52585;47.566;19.056;2023-03-14T12:21:07;17.51;45.63
65824;SHT31;52585;47.566;19.056;2023-03-14T12:23:37;17.52;45.68
65824;SHT31;52585;47.566;19.056;2023-03-14T12:26:20;17.51;45.63
65824;SHT31;52585;47.566;19.056;2023-03-14T12:42:01;17.47;44.51
65824;SHT31;52585;47.566;19.056;2023-03-14T12:49:49;17.45;44.02
65824;SHT31;52585;47.566;19.056;2023-03-14T12:55:24;17.46;43.66
65824;SHT31;52585;47.566;19.056;2023-03-14T12:58:08;17.42;43.66
65824;SHT31;52585;47.566;19.056;2023-03-14T13:00:42;17.38;43.56
65824;SHT31;52585;47.566;19.056;2023-03-14T13:03:20;17.34;43.55
65824;SHT31;52585;47.566;19.056;2023-03-14T13:05:53;17.31;43.62
65824;SHT31;52585;47.566;19.056;2023-03-14T13:08:38;17.27;43.58
65824;SHT31;52585;47.566;19.056;2023-03-14T13:11:15;17.26;43.78
65824;SHT31;52585;47.566;19.056;2023-03-14T13:13:48;17.23;43.98
65824;SHT31;52585;47.566;19.056;2023-03-14T13:16:22;17.21;43.89
65824;SHT31;52585;47.566;19.056;2023-03-14T13:18:49;17.20;44.07
65824;SHT31;52585;47.566;19.056;2023-03-14T13:21:28;17.17;44.21
65824;SHT31;52585;47.566;19.056;2023-03-14T13:24:06;17.16;44.28
65824;SHT31;52585;47.566;19.056;2023-03-14T13:26:47;17.17;44.34
65824;SHT31;52585;47.566;19.056;2023-03-14T13:31:53;17.13;44.40
65824;SHT31;52585;47.566;19.056;2023-03-14T13:34:28;17.11;44.44
65824;SHT31;52585;47.566;19.056;2023-03-14T13:36:57;17.10;44.57
65824;SHT31;52585;47.566;19.056;2023-03-14T13:39:24;17.07;44.75
65824;SHT31;52585;47.566;19.056;2023-03-14T13:41:54;17.07;44.60
65824;SHT31;52585;47.566;19.056;2023-03-14T13:44:25;17.07;44.77
65824;SHT31;52585;47.566;19.056;2023-03-14T13:47:00;17.04;44.76
65824;SHT31;52585;47.566;19.056;2023-03-14T13:49:30;17.02;44.68
65824;SHT31;52585;47.566;19.056;2023-03-14T13:52:00;17.02;44.73
65824;SHT31;52585;47.566;19.056;2023-03-14T13:54:28;17.01;44.65
65824;SHT31;52585;47.566;19.056;2023-03-14T13:57:00;17.02;44.59
65824;SHT31;52585;47.566;19.056;2023-03-14T13:59:30;17.02;44.40
65824;SHT31;52585;47.566;19.056;2023-03-14T14:02:00;17.02;44.41
65824;SHT31;52585;47.566;19.056;2023-03-14T14:04:36;17.02;44.56
65824;SHT31;52585;47.566;19.056;2023-03-14T14:07:06;17.04;44.46
65824;SHT31;52585;47.566;19.056;2023-03-14T14:09:39;17.06;44.29
65824;SHT31;52585;47.566;19.056;2023-03-14T14:12:13;17.07;44.30
65824;SHT31;52585;47.566;19.056;2023-03-14T14:17:27;17.09;44.63
65824;SHT31;52585;47.566;19.056;2023-03-14T14:20:03;17.12;44.91
65824;SHT31;52585;47.566;19.056;2023-03-14T14:22:36;17.15;44.89
65824;SHT31;52585;47.566;19.056;2023-03-14T14:25:02;17.16;44.77
65824;SHT31;52585;47.566;19.056;2023-03-14T14:27:38;17.15;44.57
65824;SHT31;52585;47.566;19.056;2023-03-14T14:32:43;17.14;44.28
65824;SHT31;52585;47.566;19.056;2023-03-14T14:35:48;17.14;44.28
65824;SHT31;52585;47.566;19.056;2023-03-14T14:38:12;17.15;44.22
65824;SHT31;52585;47.566;19.056;2023-03-14T14:40:46;17.17;44.25
65824;SHT31;52585;47.566;19.056;2023-03-14T14:43:27;17.18;44.44
65824;SHT31;52585;47.566;19.056;2023-03-14T14:45:58;17.19;44.62
65824;SHT31;52585;47.566;19.056;2023-03-14T14:48:24;17.20;44.64
65824;SHT31;52585;47.566;19.056;2023-03-14T14:50:57;17.21;44.57
65824;SHT31;52585;47.566;19.056;2023-03-14T14:56:03;17.19;44.60
65824;SHT31;52585;47.566;19.056;2023-03-14T14:58:43;17.19;44.54
65824;SHT31;52585;47.566;19.056;2023-03-14T15:01:13;17.18;44.41
65824;SHT31;52585;47.566;19.056;2023-03-14T15:03:47;17.18;44.23
65824;SHT31;52585;47.566;19.056;2023-03-14T15:06:17;17.18;44.16
65824;SHT31;52585;47.566;19.056;2023-03-14T15:08:44;17.18;44.09
65824;SHT31;52585;47.566;19.056;2023-03-14T15:11:17;17.17;44.19
65824;SHT31;52585;47.566;19.056;2023-03-14T15:13:47;17.15;44.14
65824;SHT31;52585;47.566;19.056;2023-03-14T15:16:15;17.13;44.31
65824;SHT31;52585;47.566;19.056;2023-03-14T15:18:47;17.10;44.30
65824;SHT31;52585;47.566;19.056;2023-03-14T15:21:23;17.08;44.47
65824;SHT31;52585;47.566;19.056;2023-03-14T15:23:51;17.07;44.46
65824;SHT31;52585;47.566;19.056;2023-03-14T15:26:18;17.06;44.60
65824;SHT31;52585;47.566;19.056;2023-03-14T15:28:50;17.04;44.63
65824;SHT31;52585;47.566;19.056;2023-03-14T15:31:17;17.02;44.84
65824;SHT31;52585;47.566;19.056;2023-03-14T15:33:46;17.01;45.04
65824;SHT31;52585;47.566;19.056;2023-03-14T15:36:19;16.97;45.45
65824;SHT31;52585;47.566;19.056;2023-03-14T15:38:52;16.92;45.41
65824;SHT31;52585;47.566;19.056;2023-03-14T15:41:19;16.92;45.72
65824;SHT31;52585;47.566;19.056;2023-03-14T15:43:47;16.90;45.83
65824;SHT31;52585;47.566;19.056;2023-03-14T15:46:13;16.88;45.98
65824;SHT31;52585;47.566;19.056;2023-03-14T15:48:40;16.84;48.89
65824;SHT31;52585;47.566;19.056;2023-03-14T15:51:06;16.78;50.68
65824;SHT31;52585;47.566;19.056;2023-03-14T15:53:32;16.72;51.74
65824;SHT31;52585;47.566;19.056;2023-03-14T15:55:58;16.63;54.02
65824;SHT31;52585;47.566;19.056;2023-03-14T15:58:24;16.53;55.47
65824;SHT31;52585;47.566;19.056;2023-03-14T16:00:50;16.45;55.63
65824;SHT31;52585;47.566;19.056;2023-03-14T16:03:16;16.38;56.09
65824;SHT31;52585;47.566;19.056;2023-03-14T16:05:42;16.31;57.98
65824;SHT31;52585;47.566;19.056;2023-03-14T16:08:10;16.23;58.16
65824;SHT31;52585;47.566;19.056;2023-03-14T16:10:36;16.17;58.58
65824;SHT31;52585;47.566;19.056;2023-03-14T16:13:03;16.06;60.17
65824;SHT31;52585;47.566;19.056;2023-03-14T16:15:29;15.96;61.08
65824;SHT31;52585;47.566;19.056;2023-03-14T16:17:55;15.86;61.02
65824;SHT31;52585;47.566;19.056;2023-03-14T16:20:21;15.77;61.96
65824;SHT31;52585;47.566;19.056;2023-03-14T16:22:48;15.72;61.61
65824;SHT31;52585;47.566;19.056;2023-03-14T16:25:14;15.67;61.31
65824;SHT31;52585;47.566;19.056;2023-03-14T16:27:41;15.60;62.08
65824;SHT31;52585;47.566;19.056;2023-03-14T16:30:09;15.56;62.28
65824;SHT31;52585;47.566;19.056;2023-03-14T16:32:37;15.47;63.20
65824;SHT31;52585;47.566;19.056;2023-03-14T16:35:03;15.41;62.74
65824;SHT31;52585;47.566;19.056;2023-03-14T16:37:30;15.36;63.29
65824;SHT31;52585;47.566;19.056;2023-03-14T16:39:56;15.31;64.51
65824;SHT31;52585;47.566;19.056;2023-03-14T16:42:22;15.24;65.36
65824;SHT31;52585;47.566;19.056;2023-03-14T16:44:49;15.18;65.61
65824;SHT31;52585;47.566;19.056;2023-03-14T16:47:14;15.14;65.86
65824;SHT31;52585;47.566;19.056;2023-03-14T16:49:40;15.08;66.13
65824;SHT31;52585;47.566;19.056;2023-03-14T16:52:06;15.01;67.32
65824;SHT31;52585;47.566;19.056;2023-03-14T16:54:33;14.95;66.84
65824;SHT31;52585;47.566;19.056;2023-03-14T16:56:59;14.91;67.50
65824;SHT31;52585;47.566;19.056;2023-03-14T16:59:25;14.86;67.74
65824;SHT31;52585;47.566;19.056;2023-03-14T17:01:53;14.81;67.61
65824;SHT31;52585;47.566;19.056;2023-03-14T17:04:20;14.81;67.32
65824;SHT31;52585;47.566;19.056;2023-03-14T17:06:47;14.78;67.24